Time;durP1;ratioP1;P1;durP2;ratioP2;P2;SDS_P1;SDS_P2;PMS_P1;PMS_P2;Temp;Humidity;BMP_temperature;BMP_pressure;BME280_temperature;BME280_humidity;BME280_pressure;Samples;Min_cycle;Max_cycle;Signal;HPM_P1;HPM_P2
2021/04/27 00:00:18;;;;;;;16.85;9.27;;;;;;;10.30;56.11;100141.31;5096193;28;20022;-71
2021/04/27 00:02:44;;;;;;;10.60;7.97;;;;;;;10.31;55.59;100137.31;5078474;28;20054;-71
2021/04/27 00:05:12;;;;;;;13.15;8.35;;;;;;;10.33;55.04;100137.69;5096132;28;20052;-71
2021/04/27 00:07:38;;;;;;;14.00;8.35;;;;;;;10.33;55.83;100132.06;5096450;28;20315;-71
2021/04/27 00:10:07;;;;;;;13.60;8.82;;;;;;;10.34;55.61;100125.25;5096196;28;20028;-69
2021/04/27 00:12:32;;;;;;;15.30;9.13;;;;;;;10.32;55.96;100117.22;5095765;28;20028;-71
2021/04/27 00:14:57;;;;;;;13.40;8.27;;;;;;;10.28;56.13;100119.25;5096300;28;20074;-65
2021/04/27 00:17:23;;;;;;;16.38;9.02;;;;;;;10.24;56.29;100114.88;5096142;28;20031;-70
2021/04/27 00:19:48;;;;;;;14.85;8.27;;;;;;;10.20;56.42;100110.06;5095804;28;20047;-69
2021/04/27 00:22:13;;;;;;;13.93;8.55;;;;;;;10.21;57.18;100108.84;5094930;28;20115;-69
2021/04/27 00:24:39;;;;;;;15.27;8.32;;;;;;;10.21;56.80;100111.66;5078042;28;20056;-68
2021/04/27 00:27:04;;;;;;;13.85;8.90;;;;;;;10.22;56.98;100104.03;5096152;28;20035;-70
2021/04/27 00:29:30;;;;;;;19.63;9.98;;;;;;;10.21;56.90;100106.06;5094636;28;20028;-63
2021/04/27 00:31:56;;;;;;;14.73;9.35;;;;;;;10.21;56.72;100100.44;5096020;28;20059;-73
2021/04/27 00:34:22;;;;;;;13.43;9.60;;;;;;;10.23;56.87;100094.41;5095939;28;20020;-63
2021/04/27 00:36:48;;;;;;;15.13;9.13;;;;;;;10.24;56.23;100090.38;5095822;28;20042;-62
2021/04/27 00:39:14;;;;;;;14.13;8.88;;;;;;;10.21;57.10;100097.63;5095954;28;20027;-69
2021/04/27 00:41:39;;;;;;;21.73;9.70;;;;;;;10.18;57.03;100090.00;5095657;28;20016;-69
2021/04/27 00:44:04;;;;;;;17.85;10.05;;;;;;;10.14;57.34;100094.81;5096043;28;20035;-70
2021/04/27 00:46:30;;;;;;;14.43;9.40;;;;;;;10.10;57.29;100099.63;5095457;28;20052;-69
2021/04/27 00:48:55;;;;;;;18.83;9.88;;;;;;;10.07;58.30;100092.00;5077773;28;20020;-69
2021/04/27 00:51:21;;;;;;;17.33;10.07;;;;;;;10.04;58.35;100092.84;5095143;28;20069;-64
2021/04/27 00:53:48;;;;;;;15.88;10.10;;;;;;;10.04;58.13;100095.63;5094687;28;20023;-63
2021/04/27 00:56:14;;;;;;;17.02;9.30;;;;;;;10.04;57.62;100095.63;5095742;28;20034;-63
2021/04/27 00:58:39;;;;;;;15.35;9.40;;;;;;;10.04;58.42;100084.41;5095511;28;20024;-67
2021/04/27 01:01:05;;;;;;;13.13;8.43;;;;;;;10.03;58.32;100082.81;5095592;28;20306;-71
2021/04/27 01:03:30;;;;;;;16.42;10.45;;;;;;;10.02;58.61;100084.00;5095322;28;20315;-71
2021/04/27 01:05:55;;;;;;;13.75;10.10;;;;;;;10.01;58.42;100081.63;5077827;28;20139;-71
2021/04/27 01:08:28;;;;;;;16.30;9.93;;;;;;;10.00;58.19;100089.25;5097666;28;20016;-69
2021/04/27 01:10:53;;;;;;;14.25;9.23;;;;;;;9.99;58.52;100084.03;5084505;28;20046;-61
2021/04/27 01:13:37;;;;;;;17.45;10.23;;;;;;;10.00;58.42;100074.41;5099724;28;20023;-65
2021/04/27 01:16:06;;;;;;;19.02;9.65;;;;;;;9.98;57.82;100069.19;5081380;28;20028;-64
2021/04/27 01:18:32;;;;;;;12.07;8.48;;;;;;;9.92;57.75;100070.81;5099565;28;20384;-63
2021/04/27 01:21:01;;;;;;;20.00;9.70;;;;;;;9.86;58.54;100075.22;5098683;28;20102;-63
2021/04/27 01:23:57;;;;;;;18.00;9.68;;;;;;;9.83;58.29;100067.63;5099454;28;20028;-62
2021/04/27 01:26:39;;;;;;;14.73;9.55;;;;;;;9.82;57.97;100066.03;5099047;28;20107;-62
2021/04/27 01:29:06;;;;;;;15.90;9.70;;;;;;;9.79;58.05;100059.22;5099314;28;20032;-63
2021/04/27 01:31:33;;;;;;;16.48;8.75;;;;;;;9.75;57.68;100055.63;5098992;28;20031;-62
2021/04/27 01:34:00;;;;;;;20.48;9.00;;;;;;;9.75;58.37;100057.63;5099297;28;20103;-71
2021/04/27 01:36:26;;;;;;;15.40;8.00;;;;;;;9.70;57.76;100049.63;5081007;28;20056;-69
2021/04/27 01:38:52;;;;;;;14.98;9.65;;;;;;;9.69;57.83;100048.84;5099034;28;20028;-69
2021/04/27 01:41:18;;;;;;;15.43;9.43;;;;;;;9.68;58.11;100054.84;5094958;28;20024;-69
2021/04/27 01:43:46;;;;;;;13.68;8.23;;;;;;;9.63;58.10;100042.03;5098080;28;20028;-68
2021/04/27 01:46:12;;;;;;;14.63;8.98;;;;;;;9.60;58.28;100043.66;5098548;28;20347;-67
2021/04/27 01:48:39;;;;;;;13.60;9.27;;;;;;;9.56;58.77;100047.66;5099031;28;20281;-69
2021/04/27 01:51:08;;;;;;;17.80;8.80;;;;;;;9.54;58.28;100048.06;5098903;28;20090;-70
2021/04/27 01:53:35;;;;;;;16.73;10.25;;;;;;;9.51;58.91;100040.44;5098670;28;20024;-70
2021/04/27 01:56:00;;;;;;;18.55;11.02;;;;;;;9.51;58.74;100037.66;5098837;28;20423;-69
2021/04/27 01:58:26;;;;;;;19.98;10.50;;;;;;;9.48;58.52;100041.25;5098503;28;20034;-69
2021/04/27 02:00:51;;;;;;;17.25;9.85;;;;;;;9.48;58.59;100041.25;5098571;28;20027;-70
2021/04/27 02:03:16;;;;;;;18.45;10.63;;;;;;;9.48;58.65;100038.44;5098826;28;20342;-68
2021/04/27 02:05:42;;;;;;;18.05;9.73;;;;;;;9.47;59.03;100031.25;5098458;28;20027;-70
2021/04/27 02:08:07;;;;;;;19.25;10.00;;;;;;;9.46;59.04;100032.44;5098870;28;20039;-69
2021/04/27 02:10:33;;;;;;;14.32;9.00;;;;;;;9.47;59.13;100027.63;5098088;28;20016;-73
2021/04/27 02:13:06;;;;;;;13.20;9.40;;;;;;;9.47;58.37;100034.03;5098410;28;20019;-72
2021/04/27 02:15:31;;;;;;;17.27;9.70;;;;;;;9.47;58.19;100022.81;5097271;28;20032;-71
2021/04/27 02:18:16;;;;;;;20.08;9.27;;;;;;;9.49;57.91;100031.63;5096186;28;20069;-71
2021/04/27 02:20:43;;;;;;;22.92;11.45;;;;;;;9.50;58.60;100018.41;5079462;28;20077;-71
2021/04/27 02:23:09;;;;;;;16.35;10.15;;;;;;;9.48;58.26;100021.63;5098019;28;20415;-68
2021/04/27 02:25:35;;;;;;;22.27;11.35;;;;;;;9.49;58.93;100019.63;5098152;28;20028;-67
2021/04/27 02:28:00;;;;;;;18.13;10.77;;;;;;;9.48;58.19;100018.81;5098033;28;20024;-69
2021/04/27 02:30:27;;;;;;;17.50;11.25;;;;;;;9.47;59.31;100011.59;5097744;28;20067;-69
2021/04/27 02:32:54;;;;;;;17.58;10.05;;;;;;;9.45;60.24;100013.22;5098056;28;20024;-69
2021/04/27 02:35:21;;;;;;;16.67;9.98;;;;;;;9.42;61.06;100012.03;5098032;28;20016;-68
2021/04/27 02:37:49;;;;;;;14.85;10.02;;;;;;;9.41;60.47;100016.03;5097707;28;20028;-70
2021/04/27 02:40:21;;;;;;;13.95;9.93;;;;;;;9.40;60.54;100011.63;5098150;28;20032;-69
2021/04/27 02:42:58;;;;;;;15.00;8.50;;;;;;;9.40;60.20;100011.63;5097752;28;20474;-69
2021/04/27 02:45:31;;;;;;;16.75;10.18;;;;;;;9.38;60.51;100005.63;5098236;28;20036;-67
2021/04/27 02:48:26;;;;;;;16.98;9.80;;;;;;;9.35;61.25;100009.25;5097741;28;20050;-66
2021/04/27 02:51:02;;;;;;;15.07;9.45;;;;;;;9.33;61.57;100013.66;5096221;28;20374;-71
2021/04/27 02:53:27;;;;;;;16.80;8.88;;;;;;;9.33;61.40;100005.25;5097413;28;20400;-69
2021/04/27 02:55:54;;;;;;;14.20;10.13;;;;;;;9.33;61.41;100008.84;5097567;28;20116;-71
2021/04/27 02:58:20;;;;;;;16.38;10.10;;;;;;;9.32;61.39;100004.44;5079237;28;20032;-65
2021/04/27 03:00:46;;;;;;;13.05;8.93;;;;;;;9.32;61.04;100009.25;5097593;28;20051;-63
2021/04/27 03:03:12;;;;;;;18.90;9.63;;;;;;;9.29;62.24;100006.03;5097430;28;20055;-68
2021/04/27 03:05:38;;;;;;;16.50;10.63;;;;;;;9.28;61.59;100009.22;5097219;28;20066;-69
2021/04/27 03:08:07;;;;;;;15.45;10.02;;;;;;;9.28;62.23;100014.84;5079529;28;20020;-68
2021/04/27 03:10:33;;;;;;;21.77;10.23;;;;;;;9.29;62.12;100016.44;5097051;28;20019;-70
2021/04/27 03:13:00;;;;;;;15.60;9.85;;;;;;;9.32;61.37;100017.66;5097383;28;20020;-66
2021/04/27 03:15:25;;;;;;;16.40;11.85;;;;;;;9.34;61.59;100021.66;5097113;28;20020;-70
2021/04/27 03:17:50;;;;;;;24.10;12.70;;;;;;;9.36;61.21;100021.25;5097061;28;20039;-70
2021/04/27 03:20:16;;;;;;;23.45;11.98;;;;;;;9.37;61.33;100017.25;5097154;28;20032;-71
2021/04/27 03:22:42;;;;;;;16.90;10.75;;;;;;;9.37;60.60;100029.28;5097081;28;20028;-67
2021/04/27 03:25:10;;;;;;;17.63;11.20;;;;;;;9.37;61.66;100022.84;5097133;28;20319;-63
2021/04/27 03:27:36;;;;;;;22.02;10.52;;;;;;;9.36;61.43;100027.66;5096539;28;20419;-67
2021/04/27 03:30:05;;;;;;;16.05;10.82;;;;;;;9.38;62.06;100025.25;5096843;28;20092;-64
2021/04/27 03:32:30;;;;;;;15.88;11.18;;;;;;;9.38;61.69;100024.47;5078678;28;20064;-66
2021/04/27 03:34:55;;;;;;;18.38;11.02;;;;;;;9.35;62.26;100026.06;5096971;28;20028;-65
2021/04/27 03:37:21;;;;;;;22.75;11.35;;;;;;;9.35;62.91;100022.47;5096710;28;20396;-63
2021/04/27 03:39:46;;;;;;;21.30;11.30;;;;;;;9.33;62.83;100020.06;5096976;28;20439;-62
2021/04/27 03:42:11;;;;;;;21.25;11.95;;;;;;;9.33;62.84;100022.06;5096296;28;20106;-70
2021/04/27 03:44:37;;;;;;;26.52;11.05;;;;;;;9.33;63.29;100033.28;5096650;28;20016;-69
2021/04/27 03:47:04;;;;;;;19.63;11.13;;;;;;;9.33;63.28;100031.28;5096653;28;20044;-70
2021/04/27 03:49:30;;;;;;;16.30;11.48;;;;;;;9.34;62.76;100029.28;5096322;28;20051;-70
2021/04/27 03:51:55;;;;;;;18.17;11.25;;;;;;;9.34;62.58;100027.28;5096585;28;20085;-62
2021/04/27 03:54:21;;;;;;;16.50;11.13;;;;;;;9.33;62.47;100024.88;5096542;28;20101;-70
2021/04/27 03:56:46;;;;;;;17.58;11.30;;;;;;;9.32;62.52;100026.09;5095895;28;20069;-62
2021/04/27 03:59:13;;;;;;;15.63;11.68;;;;;;;9.33;61.96;100028.47;5096496;28;20031;-63
2021/04/27 04:01:39;;;;;;;19.75;11.07;;;;;;;9.34;61.90;100035.69;5096259;28;20019;-68
2021/04/27 04:04:04;;;;;;;20.85;11.48;;;;;;;9.36;61.85;100041.69;5078402;28;20036;-70
2021/04/27 04:06:30;;;;;;;17.23;11.27;;;;;;;9.32;61.68;100040.91;5096171;28;20031;-69
2021/04/27 04:08:55;;;;;;;21.45;12.05;;;;;;;9.32;61.81;100038.09;5096317;28;20077;-68
2021/04/27 04:11:21;;;;;;;25.00;13.52;;;;;;;9.30;61.80;100038.47;5096092;28;20115;-66
2021/04/27 04:13:46;;;;;;;29.02;14.93;;;;;;;9.32;62.09;100052.13;5078128;28;20020;-67
2021/04/27 04:16:11;;;;;;;22.90;14.18;;;;;;;9.34;62.00;100055.31;5096191;28;20430;-63
2021/04/27 04:18:37;;;;;;;21.95;12.98;;;;;;;9.33;61.87;100053.72;5096012;28;20016;-62
2021/04/27 04:21:02;;;;;;;23.75;13.70;;;;;;;9.33;62.27;100050.91;5095946;28;20027;-63
2021/04/27 04:23:28;;;;;;;26.13;13.23;;;;;;;9.36;61.95;100066.13;5095990;28;20028;-67
2021/04/27 04:25:55;;;;;;;32.13;13.45;;;;;;;9.39;62.67;100062.53;5095780;28;20058;-65
2021/04/27 04:28:21;;;;;;;23.02;13.13;;;;;;;9.40;62.38;100066.94;5095924;28;20020;-69
2021/04/27 04:30:46;;;;;;;24.40;13.90;;;;;;;9.39;62.94;100065.34;5094088;28;20307;-66
2021/04/27 04:33:11;;;;;;;17.88;11.70;;;;;;;9.38;62.55;100064.53;5095722;28;20093;-69
2021/04/27 04:35:37;;;;;;;25.95;14.48;;;;;;;9.37;62.92;100071.34;5095470;28;20020;-71
2021/04/27 04:38:03;;;;;;;34.63;14.07;;;;;;;9.38;63.02;100075.75;5095233;28;20412;-61
2021/04/27 04:40:29;;;;;;;26.40;14.77;;;;;;;9.40;62.95;100072.53;5093541;28;20027;-62
2021/04/27 04:42:54;;;;;;;24.85;13.32;;;;;;;9.42;62.26;100073.75;5088371;28;20024;-62
2021/04/27 04:45:20;;;;;;;25.38;13.05;;;;;;;9.44;62.60;100067.72;5090425;28;20056;-63
2021/04/27 04:47:46;;;;;;;28.55;12.68;;;;;;;9.47;62.50;100066.91;5090761;28;20476;-62
2021/04/27 04:50:13;;;;;;;30.45;14.20;;;;;;;9.47;63.14;100070.53;5077350;28;20028;-62
2021/04/27 04:52:38;;;;;;;42.90;19.65;;;;;;;9.47;62.18;100073.31;5090857;28;20425;-62
2021/04/27 04:55:08;;;;;;;63.33;27.13;;;;;;;9.49;62.60;100073.72;5093896;28;20027;-63
2021/04/27 04:57:35;;;;;;;31.60;17.83;;;;;;;9.50;61.92;100072.50;5089760;28;20023;-62
2021/04/27 05:00:01;;;;;;;25.85;14.73;;;;;;;9.52;62.23;100075.72;5085139;28;20027;-62
2021/04/27 05:02:27;;;;;;;20.63;12.98;;;;;;;9.53;62.44;100068.91;5092367;28;20118;-61
2021/04/27 05:04:52;;;;;;;22.10;13.00;;;;;;;9.55;61.89;100074.91;5095000;28;20024;-61
2021/04/27 05:07:20;;;;;;;24.85;14.18;;;;;;;9.57;60.34;100072.50;5093960;28;20020;-61
2021/04/27 05:09:46;;;;;;;21.20;14.73;;;;;;;9.60;60.58;100076.53;5094916;28;20069;-61
2021/04/27 05:12:11;;;;;;;19.77;12.40;;;;;;;9.63;59.90;100081.31;5095506;28;20024;-61
2021/04/27 05:14:39;;;;;;;24.40;14.57;;;;;;;9.67;59.13;100086.94;5095294;28;20035;-61
2021/04/27 05:17:05;;;;;;;21.80;14.10;;;;;;;9.69;58.73;100087.31;5095254;28;20066;-61
2021/04/27 05:19:31;;;;;;;35.00;18.48;;;;;;;9.73;59.06;100090.91;5077250;28;20416;-62
2021/04/27 05:21:57;;;;;;;42.58;22.08;;;;;;;9.74;58.09;100086.91;5093181;28;20042;-62
2021/04/27 05:24:22;;;;;;;39.35;22.67;;;;;;;9.77;57.87;100094.50;5093220;28;20028;-62
2021/04/27 05:26:48;;;;;;;35.70;21.00;;;;;;;9.80;57.30;100085.28;5093722;28;20040;-61
2021/04/27 05:29:14;;;;;;;30.42;16.80;;;;;;;9.83;57.39;100098.50;5093998;28;20032;-61
2021/04/27 05:31:40;;;;;;;25.52;15.90;;;;;;;9.85;56.48;100088.47;5094463;28;20053;-61
2021/04/27 05:34:06;;;;;;;24.00;14.32;;;;;;;9.88;56.13;100086.88;5094756;28;20032;-61
2021/04/27 05:36:31;;;;;;;24.00;14.48;;;;;;;9.91;55.65;100097.31;5077259;28;20318;-62
2021/04/27 05:38:57;;;;;;;25.50;14.98;;;;;;;9.93;55.95;100092.06;5095038;28;20088;-61
2021/04/27 05:41:22;;;;;;;31.17;15.35;;;;;;;9.94;55.62;100095.69;5095148;28;20024;-62
2021/04/27 05:43:48;;;;;;;25.20;15.05;;;;;;;9.98;54.67;100100.06;5095318;28;20058;-62
2021/04/27 05:46:13;;;;;;;22.77;15.05;;;;;;;10.00;55.17;100097.66;5094871;28;20055;-63
2021/04/27 05:48:38;;;;;;;24.25;14.25;;;;;;;10.01;55.50;100095.66;5095322;28;20019;-62
2021/04/27 05:51:04;;;;;;;30.13;14.57;;;;;;;10.02;55.36;100095.25;5095150;28;20035;-63
2021/04/27 05:53:29;;;;;;;28.17;14.52;;;;;;;10.06;54.54;100089.63;5095030;28;20030;-62
2021/04/27 05:55:55;;;;;;;21.30;14.00;;;;;;;10.07;54.77;100092.00;5080046;28;20020;-62
2021/04/27 05:58:20;;;;;;;22.70;14.23;;;;;;;10.12;54.83;100090.78;5098576;28;20099;-66
2021/04/27 06:00:45;;;;;;;22.55;13.18;;;;;;;10.14;54.94;100088.41;5099047;28;20032;-62
2021/04/27 06:03:11;;;;;;;23.92;13.45;;;;;;;10.17;53.66;100088.38;5098361;28;20093;-63
2021/04/27 06:05:36;;;;;;;23.98;13.40;;;;;;;10.20;53.76;100095.19;5098650;28;20446;-62
2021/04/27 06:08:01;;;;;;;23.38;14.13;;;;;;;10.22;53.50;100090.00;5098453;28;20284;-64
2021/04/27 06:10:27;;;;;;;21.58;12.95;;;;;;;10.25;53.94;100099.63;5080339;28;20480;-70
2021/04/27 06:12:52;;;;;;;27.92;13.82;;;;;;;10.30;53.33;100096.38;5080625;28;20365;-68
2021/04/27 06:15:17;;;;;;;23.45;12.82;;;;;;;10.34;52.65;100094.34;5080404;28;20020;-68
2021/04/27 06:17:44;;;;;;;21.45;12.90;;;;;;;10.38;52.94;100092.31;5098343;28;20481;-71
2021/04/27 06:20:10;;;;;;;26.80;13.15;;;;;;;10.44;51.90;100094.31;5097996;28;20471;-69
2021/04/27 06:22:37;;;;;;;20.08;11.88;;;;;;;10.51;51.31;100093.47;5098601;28;20024;-71
2021/04/27 06:25:04;;;;;;;20.27;11.98;;;;;;;10.51;51.90;100090.66;5098313;28;20028;-66
2021/04/27 06:27:29;;;;;;;19.08;12.00;;;;;;;10.56;51.89;100101.47;5097966;28;20315;-69
2021/04/27 06:29:56;;;;;;;25.90;13.60;;;;;;;10.62;51.47;100096.22;5080317;28;20020;-70
2021/04/27 06:32:22;;;;;;;30.40;11.90;;;;;;;10.62;50.44;100099.81;5098189;28;20028;-71
2021/04/27 06:34:47;;;;;;;23.83;12.77;;;;;;;10.62;50.52;100091.38;5097789;28;20027;-72
2021/04/27 06:37:13;;;;;;;24.67;12.73;;;;;;;10.60;49.40;100099.44;5098064;28;20051;-71
2021/04/27 06:39:39;;;;;;;25.98;11.45;;;;;;;10.65;49.88;100106.63;5097836;28;20026;-70
2021/04/27 06:42:05;;;;;;;23.38;12.07;;;;;;;10.64;49.88;100096.59;5097994;28;20024;-71
2021/04/27 06:44:31;;;;;;;17.85;11.18;;;;;;;10.62;49.85;100102.63;5098041;28;20051;-71
2021/04/27 06:46:56;;;;;;;20.20;10.55;;;;;;;10.61;50.09;100100.22;5097718;28;20114;-69
2021/04/27 06:49:21;;;;;;;18.27;11.05;;;;;;;10.63;49.98;100103.44;5097391;28;20043;-68
2021/04/27 06:51:47;;;;;;;23.10;9.70;;;;;;;10.64;50.23;100103.03;5097828;28;20491;-70
2021/04/27 06:54:12;;;;;;;18.70;10.30;;;;;;;10.66;50.45;100094.19;5097683;28;20346;-71
2021/04/27 06:56:38;;;;;;;16.42;10.50;;;;;;;10.70;50.59;100104.22;5079577;28;20111;-71
2021/04/27 06:59:03;;;;;;;16.88;10.07;;;;;;;10.74;51.30;100107.78;5097807;28;20024;-70
2021/04/27 07:01:30;;;;;;;13.43;9.65;;;;;;;10.81;50.58;100104.94;5097684;28;20028;-70
2021/04/27 07:03:55;;;;;;;17.50;10.70;;;;;;;10.89;50.25;100104.88;5097651;28;20020;-61
2021/04/27 07:06:21;;;;;;;20.70;11.35;;;;;;;10.95;50.26;100103.22;5078623;28;20024;-62
2021/04/27 07:08:46;;;;;;;24.77;12.20;;;;;;;11.00;49.43;100106.44;5097472;28;20031;-70
2021/04/27 07:11:12;;;;;;;31.38;12.98;;;;;;;11.05;48.90;100108.00;5097406;28;20024;-62
2021/04/27 07:13:37;;;;;;;18.55;11.82;;;;;;;11.07;49.47;100111.19;5096917;28;20458;-62
2021/04/27 07:16:03;;;;;;;24.50;14.25;;;;;;;11.11;48.32;100111.97;5097273;28;20077;-61
2021/04/27 07:18:28;;;;;;;23.15;12.88;;;;;;;11.17;48.80;100112.31;5096790;28;20028;-64
2021/04/27 07:20:53;;;;;;;22.27;12.98;;;;;;;11.28;48.27;100116.66;5097078;28;20028;-62
2021/04/27 07:23:19;;;;;;;22.90;13.35;;;;;;;11.36;49.57;100117.41;5097244;28;20024;-63
2021/04/27 07:25:44;;;;;;;22.63;13.75;;;;;;;11.40;48.97;100107.72;5096781;28;20058;-71
2021/04/27 07:28:10;;;;;;;22.08;13.80;;;;;;;11.43;47.86;100112.50;5097110;28;20289;-62
2021/04/27 07:30:36;;;;;;;23.33;14.85;;;;;;;11.52;47.87;100109.22;5096883;28;20052;-61
2021/04/27 07:33:03;;;;;;;20.52;13.13;;;;;;;11.56;47.84;100112.00;5096876;28;20403;-70
2021/04/27 07:35:30;;;;;;;26.67;15.00;;;;;;;11.61;48.45;100115.16;5096929;28;20068;-71
2021/04/27 07:38:00;;;;;;;23.88;14.15;;;;;;;11.71;47.58;100121.91;5096493;28;20028;-70
2021/04/27 07:40:25;;;;;;;26.73;15.30;;;;;;;11.79;46.84;100117.84;5096846;28;20319;-61
2021/04/27 07:42:51;;;;;;;27.00;14.50;;;;;;;11.88;47.00;100123.78;5096647;28;20024;-61
2021/04/27 07:45:16;;;;;;;23.50;13.35;;;;;;;11.96;47.65;100125.28;5096636;28;20438;-63
2021/04/27 07:47:42;;;;;;;22.33;14.05;;;;;;;12.03;46.90;100122.38;5096211;28;20047;-62
2021/04/27 07:50:10;;;;;;;17.75;12.43;;;;;;;12.07;47.89;100119.56;5096961;28;20315;-61
2021/04/27 07:52:38;;;;;;;22.85;14.00;;;;;;;12.14;48.14;100116.66;5096831;28;20024;-62
2021/04/27 07:55:04;;;;;;;27.27;15.48;;;;;;;12.21;46.83;100116.56;5096323;28;20016;-62
2021/04/27 07:57:30;;;;;;;20.00;12.90;;;;;;;12.23;46.57;100124.59;5096487;28;20074;-63
2021/04/27 07:59:55;;;;;;;24.27;15.27;;;;;;;12.22;47.04;100112.53;5096183;28;20015;-69
2021/04/27 08:02:20;;;;;;;19.30;12.75;;;;;;;12.24;47.06;100114.91;5096318;28;20099;-67
2021/04/27 08:04:46;;;;;;;24.40;14.98;;;;;;;12.26;46.44;100106.84;5096321;28;20409;-63
2021/04/27 08:07:12;;;;;;;23.63;14.90;;;;;;;12.27;46.20;100114.88;5078322;28;20441;-62
2021/04/27 08:09:38;;;;;;;19.90;12.98;;;;;;;12.28;46.77;100110.03;5096349;28;20024;-62
2021/04/27 08:12:04;;;;;;;23.65;14.85;;;;;;;12.32;47.27;100105.16;5078113;28;20081;-62
2021/04/27 08:14:29;;;;;;;21.27;12.90;;;;;;;12.36;47.26;100100.28;5096380;28;20031;-63
2021/04/27 08:16:55;;;;;;;21.98;13.63;;;;;;;12.42;47.27;100104.25;5094972;28;20016;-61
2021/04/27 08:19:20;;;;;;;20.98;13.20;;;;;;;12.50;46.91;100108.56;5096011;28;20054;-62
2021/04/27 08:21:46;;;;;;;23.58;14.15;;;;;;;12.57;46.73;100105.63;5096073;28;20024;-64
2021/04/27 08:24:12;;;;;;;21.05;13.63;;;;;;;12.63;45.69;100101.16;5096100;28;20420;-61
2021/04/27 08:26:37;;;;;;;22.02;13.13;;;;;;;12.65;45.48;100101.50;5096274;28;20024;-71
2021/04/27 08:29:03;;;;;;;20.65;11.65;;;;;;;12.68;45.33;100100.66;5078108;28;20023;-64
2021/04/27 08:31:28;;;;;;;18.05;12.10;;;;;;;12.67;45.20;100104.72;5096661;28;20028;-71
2021/04/27 08:33:54;;;;;;;23.70;12.13;;;;;;;12.67;46.02;100098.28;5096329;28;20024;-67
2021/04/27 08:36:19;;;;;;;19.90;12.82;;;;;;;12.70;46.16;100091.78;5095924;28;20108;-71
2021/04/27 08:38:45;;;;;;;16.90;11.48;;;;;;;12.71;45.48;100093.38;5095942;28;20031;-69
2021/04/27 08:41:10;;;;;;;18.40;11.07;;;;;;;12.75;46.53;100098.97;5095572;28;20093;-68
2021/04/27 08:43:36;;;;;;;21.25;10.90;;;;;;;12.81;45.33;100094.44;5095857;28;20082;-69
2021/04/27 08:46:02;;;;;;;16.50;11.35;;;;;;;12.86;45.31;100093.94;5095331;28;20100;-70
2021/04/27 08:48:28;;;;;;;24.90;11.60;;;;;;;12.90;44.45;100089.09;5095682;28;20076;-69
2021/04/27 08:50:53;;;;;;;21.17;13.35;;;;;;;12.92;44.91;100086.63;5095910;28;20297;-70
2021/04/27 08:53:20;;;;;;;21.10;12.18;;;;;;;12.92;45.35;100092.28;5095540;28;20024;-68
2021/04/27 08:55:46;;;;;;;21.55;12.18;;;;;;;12.92;45.66;100081.00;5094645;28;20431;-70
2021/04/27 08:58:13;;;;;;;23.15;13.40;;;;;;;12.97;46.77;100081.31;5095819;28;20233;-63
2021/04/27 09:00:40;;;;;;;22.63;13.15;;;;;;;13.09;45.03;100071.44;5095609;28;20598;-65
2021/04/27 09:03:08;;;;;;;21.65;12.32;;;;;;;13.13;44.62;100077.00;5095732;28;20020;-69
2021/04/27 09:05:37;;;;;;;18.30;11.70;;;;;;;13.12;44.69;100067.75;5095696;28;20035;-64
2021/04/27 09:08:03;;;;;;;20.33;12.75;;;;;;;13.12;44.92;100072.59;5095738;28;20056;-62
2021/04/27 09:10:32;;;;;;;20.63;12.25;;;;;;;13.13;44.38;100071.38;5095702;28;20030;-65
2021/04/27 09:13:01;;;;;;;18.67;11.85;;;;;;;13.08;44.05;100072.66;5095595;28;20032;-66
2021/04/27 09:15:35;;;;;;;20.55;12.60;;;;;;;13.05;44.74;100072.72;5095217;28;20115;-68
2021/04/27 09:18:33;;;;;;;23.55;12.15;;;;;;;13.02;44.13;100074.38;5095320;28;20370;-70
2021/04/27 09:21:02;;;;;;;20.73;11.50;;;;;;;13.03;45.11;100073.16;5095299;28;20024;-66
2021/04/27 09:23:30;;;;;;;18.63;11.57;;;;;;;13.03;44.33;100069.53;5095422;28;20377;-63
2021/04/27 09:26:15;;;;;;;15.65;11.00;;;;;;;13.06;46.29;100071.50;5095371;28;20024;-69
2021/04/27 09:28:52;;;;;;;18.40;10.80;;;;;;;13.09;44.10;100062.97;5096319;28;20023;-69
2021/04/27 09:31:41;;;;;;;26.70;13.00;;;;;;;13.11;45.17;100068.97;5099096;28;20038;-66
2021/04/27 09:34:20;;;;;;;21.30;12.35;;;;;;;13.11;44.16;100066.16;5099351;28;20020;-67
2021/04/27 09:36:47;;;;;;;24.85;11.63;;;;;;;13.11;44.37;100065.34;5099010;28;20028;-71
2021/04/27 09:39:13;;;;;;;17.45;11.82;;;;;;;13.11;44.73;100065.34;5099097;28;20020;-70
2021/04/27 09:41:38;;;;;;;22.83;10.90;;;;;;;13.16;44.83;100062.06;5099048;28;20027;-64
2021/04/27 09:44:04;;;;;;;17.67;10.40;;;;;;;13.19;43.75;100056.41;5098727;28;20042;-71
2021/04/27 09:46:29;;;;;;;18.73;11.73;;;;;;;13.20;44.35;100060.00;5098812;28;20047;-70
2021/04/27 09:48:58;;;;;;;15.75;10.90;;;;;;;13.20;44.07;100052.34;5099041;28;20035;-69
2021/04/27 09:51:36;;;;;;;23.90;11.40;;;;;;;13.25;43.73;100060.31;5098738;28;20120;-68
2021/04/27 09:54:03;;;;;;;14.90;10.00;;;;;;;13.27;43.54;100057.06;5098963;28;20054;-69
2021/04/27 09:56:50;;;;;;;16.80;9.32;;;;;;;13.28;44.37;100058.66;5098497;28;20415;-71
2021/04/27 09:59:23;;;;;;;19.95;10.55;;;;;;;13.29;44.44;100058.22;5098943;28;20032;-69
2021/04/27 10:01:50;;;;;;;22.10;11.35;;;;;;;13.34;43.92;100053.31;5098828;28;20016;-68
2021/04/27 10:04:16;;;;;;;18.88;11.20;;;;;;;13.34;44.03;100056.13;5098562;28;20055;-70
2021/04/27 10:06:45;;;;;;;25.27;12.07;;;;;;;13.38;44.50;100060.50;5098840;28;20108;-69
2021/04/27 10:09:11;;;;;;;20.02;10.70;;;;;;;13.40;44.96;100051.59;5098491;28;20407;-71
2021/04/27 10:11:37;;;;;;;17.67;11.38;;;;;;;13.40;43.87;100048.75;5080427;28;20028;-71
2021/04/27 10:14:05;;;;;;;19.88;11.48;;;;;;;13.40;43.92;100048.75;5098372;28;20415;-70
2021/04/27 10:16:32;;;;;;;19.63;10.25;;;;;;;13.37;43.41;100049.63;5098395;28;20061;-71
2021/04/27 10:18:58;;;;;;;17.05;10.75;;;;;;;13.35;44.52;100046.44;5098107;28;20048;-69
2021/04/27 10:21:24;;;;;;;15.38;11.27;;;;;;;13.35;43.39;100046.44;5080489;28;20074;-69
2021/04/27 10:23:51;;;;;;;20.15;10.45;;;;;;;13.33;42.65;100043.25;5098197;28;20085;-69
2021/04/27 10:26:22;;;;;;;18.35;10.50;;;;;;;13.28;44.14;100042.53;5097998;28;20023;-71
2021/04/27 10:29:03;;;;;;;16.15;9.90;;;;;;;13.32;43.89;100041.66;5098163;28;20027;-70
2021/04/27 10:31:32;;;;;;;18.33;9.93;;;;;;;13.34;43.41;100031.53;5084878;28;20016;-70
2021/04/27 10:34:04;;;;;;;13.13;9.65;;;;;;;13.39;43.17;100033.06;5080217;28;20304;-70
2021/04/27 10:36:30;;;;;;;15.48;10.18;;;;;;;13.44;43.17;100046.69;5083031;28;20027;-70
2021/04/27 10:39:05;;;;;;;16.27;9.35;;;;;;;13.46;43.82;100032.94;5097947;28;20055;-63
2021/04/27 10:41:54;;;;;;;16.45;9.82;;;;;;;13.50;42.93;100031.66;5096809;28;20137;-65
2021/04/27 10:44:22;;;;;;;17.77;10.43;;;;;;;13.56;42.48;100043.25;5097702;28;20116;-70
2021/04/27 10:47:00;;;;;;;16.30;10.15;;;;;;;13.58;42.92;100040.78;5079820;28;20052;-69
2021/04/27 10:49:33;;;;;;;17.23;9.90;;;;;;;13.56;43.07;100041.22;5097543;28;20437;-71
2021/04/27 10:52:00;;;;;;;18.00;9.60;;;;;;;13.56;42.94;100035.56;5079918;28;20042;-68
2021/04/27 10:54:34;;;;;;;21.60;9.57;;;;;;;13.59;42.54;100028.25;5097989;28;20024;-71
2021/04/27 10:57:00;;;;;;;20.30;10.38;;;;;;;13.61;43.89;100014.50;5059418;28;20055;-69
2021/04/27 10:59:30;;;;;;;16.63;9.90;;;;;;;13.67;43.24;100020.44;5090640;28;20320;-71
2021/04/27 11:02:20;;;;;;;23.00;11.77;;;;;;;13.69;42.54;100020.81;5097573;28;20532;-71
2021/04/27 11:04:53;;;;;;;16.15;10.32;;;;;;;13.71;43.42;100019.16;5097437;28;20028;-71
2021/04/27 11:07:19;;;;;;;18.55;10.95;;;;;;;13.70;43.21;100017.56;5097356;28;20016;-71
2021/04/27 11:09:59;;;;;;;22.20;11.00;;;;;;;13.70;44.15;100016.78;5097374;28;20027;-70
2021/04/27 11:12:44;;;;;;;14.50;9.45;;;;;;;13.73;44.20;100016.69;5084941;28;20023;-71
2021/04/27 11:15:23;;;;;;;14.95;9.80;;;;;;;13.82;43.11;100025.38;5097198;28;20016;-70